Cloquet, MN

16:54 CDT le 30 septembre 2014 (GMT -0500)
Cloquet Carlton County | Change Station
CLOSE
Current Station
Aéroport
Location: Cloquet,
Altitude: 1280 ft
Stations météo à proximité
Avis météorologiques actifs: Beach Hazard Statement

Alt. 1280 ft 46.70 °N, 92.50 °W | Updated 18 minutes ago

Nuageux
Nuageux
48 ° F
Paraît 48 ° F
N
9
Vent Variable Vent de Est
Gusts 16 mph

Aujourd'hui
Haut(e) -- | Bas -- ° F
--% Risque de précip.
Hier
Haut(e) -- | Bas -- ° F
Precip. -- pouce
7:07 AM 6:51 PM
Lune montante, 40% visible
Pression 29.97 pouce
Visibilité 10.0 Miles terrestres
Nuages Nuageux 1300 ft
Point de rosée 41 ° F
Humidité 76%
Précipitations 0.00 pouce
Profondeur de la couche neigeuse Non disponible.
UV 1 sur 12
Pollen 1.20 sur 12
Qualité de l'air Non disponible.
Flu Activity Non disponible.
METAR KCOQ 302136Z AUTO 08008G14KT 10SM BKN013 09/05 A2997 RMK AO2

More Conditions Fewer Conditions

Pression 29.97 pouce
Visibilité 10.0 Miles terrestres
Nuages Nuageux 1300 ft
Point de rosée 41 ° F
Humidité 76%
Précipitations 0.00 pouce
Profondeur de la couche neigeuse Non disponible.
UV 1 sur 12
Pollen 1.20 sur 12
Qualité de l'air Non disponible.
Flu Activity Non disponible.
METAR KCOQ 302136Z AUTO 08008G14KT 10SM BKN013 09/05 A2997 RMK AO2

More Conditions Fewer Conditions

10-Day Weather Forecast

Almanac

Astronomie

Sep. 30, 2014 Lever Coucher
Temps réel 07:07 CDT 18:51 CDT
Crépuscule civil 06:37 CDT 19:21 CDT
Crépuscule nautique 06:01 CDT 19:56 CDT
Crépuscule astronomique 05:25 CDT 20:32 CDT
Lune 13:32 CDT 23:05 CDT
Durée de lumière visible 12h 44m
Longueur du jour
11h 44m
Tomorrow will be 3m 19s shorter.
Lune montante, 40% of the Moon is Illuminated
Aujourd'hui
Lune montante
Oct 1
Premier quartier
Oct 8
Pleine lune
Oct 15
Dernier quartier
Oct 23
Nouveau

Extrêmes aujourd'hui

State Highs State Lows

Community

WunderPhotos

Upload Photos

1,757,755 Photos téléchargées !

Nearby

Épaisseur de neige

Station Depth Altitude
Pas de nouvelles chutes de neige

Activité sismique

Ville Distance Mag. Time & Date
No recent earthquake activity has been reported nearby.
Minimum magnitude displayed is 2.5.

Températures des eaux côtières

Lieu Température
Duluth, MN 60.1 ° F

Stations météo à proximité